Time;durP1;ratioP1;P1;durP2;ratioP2;P2;SDS_P1;SDS_P2;PMS_P1;PMS_P2;Temp;Humidity;BMP_temperature;BMP_pressure;BME280_temperature;BME280_humidity;BME280_pressure;Samples;Min_cycle;Max_cycle;Signal;HPM_P1;HPM_P2
2020/12/24 00:00:29;;;;;;;1.27;0.60;;;9.90;91.00;;;;;;5093807;28;20124;-75
2020/12/24 00:02:54;;;;;;;4.78;0.60;;;9.80;90.80;;;;;;5095301;28;20039;-75
2020/12/24 00:05:20;;;;;;;1.48;0.60;;;9.70;90.70;;;;;;5095282;28;20035;-76
2020/12/24 00:07:45;;;;;;;1.17;0.65;;;9.70;90.90;;;;;;5094962;28;20474;-75
2020/12/24 00:10:11;;;;;;;1.42;0.73;;;9.60;90.90;;;;;;5093448;28;20024;-77
2020/12/24 00:12:38;;;;;;;1.75;0.88;;;9.60;90.90;;;;;;5093468;28;20024;-77
2020/12/24 00:15:05;;;;;;;2.88;0.80;;;9.60;91.00;;;;;;5093174;28;20043;-77
2020/12/24 00:17:31;;;;;;;1.52;0.60;;;9.50;90.90;;;;;;5092718;28;20445;-77
2020/12/24 00:19:57;;;;;;;1.35;0.77;;;9.50;91.00;;;;;;5093045;28;20024;-77
2020/12/24 00:22:22;;;;;;;1.05;0.70;;;9.60;91.00;;;;;;5093358;28;20474;-77
2020/12/24 00:24:48;;;;;;;1.65;0.80;;;9.60;91.10;;;;;;5093177;28;20025;-76
2020/12/24 00:27:14;;;;;;;2.90;0.80;;;9.60;91.10;;;;;;5094374;28;20063;-77
2020/12/24 00:29:39;;;;;;;0.77;0.70;;;9.70;91.20;;;;;;5093241;28;20028;-76
2020/12/24 00:32:05;;;;;;;1.17;0.63;;;9.70;91.20;;;;;;5094314;28;20039;-76
2020/12/24 00:34:31;;;;;;;1.60;1.00;;;9.80;91.20;;;;;;5093005;28;20038;-76
2020/12/24 00:36:57;;;;;;;3.15;0.90;;;9.80;91.20;;;;;;5094282;28;20055;-76
2020/12/24 00:39:22;;;;;;;1.60;1.08;;;9.80;91.10;;;;;;5092944;28;20104;-76
2020/12/24 00:41:48;;;;;;;2.42;0.82;;;9.80;91.10;;;;;;5092837;28;20020;-76
2020/12/24 00:44:14;;;;;;;3.00;1.00;;;9.80;91.10;;;;;;5092772;28;20123;-76
2020/12/24 00:46:40;;;;;;;1.70;1.08;;;9.90;91.20;;;;;;5092841;28;20036;-76
2020/12/24 00:49:06;;;;;;;2.45;1.10;;;9.90;91.20;;;;;;5094386;28;20088;-76
2020/12/24 00:51:31;;;;;;;2.60;1.05;;;9.90;91.20;;;;;;5094499;28;20024;-76
2020/12/24 00:53:57;;;;;;;2.03;1.58;;;9.90;91.20;;;;;;5092478;28;20118;-76
2020/12/24 00:56:22;;;;;;;2.30;1.08;;;9.90;91.20;;;;;;5092448;28;20054;-76
2020/12/24 00:58:48;;;;;;;3.15;1.20;;;9.90;91.20;;;;;;5093679;28;20036;-76
2020/12/24 01:01:14;;;;;;;1.65;1.00;;;9.90;91.20;;;;;;5092529;28;20119;-76
2020/12/24 01:03:39;;;;;;;1.77;1.10;;;9.90;91.20;;;;;;5092290;28;20024;-76
2020/12/24 01:06:05;;;;;;;2.25;1.10;;;9.90;91.20;;;;;;5093612;28;20032;-76
2020/12/24 01:08:31;;;;;;;2.55;1.38;;;9.90;91.20;;;;;;5092319;28;20032;-76
2020/12/24 01:10:57;;;;;;;1.00;0.90;;;9.90;91.10;;;;;;5092115;28;20077;-76
2020/12/24 01:13:23;;;;;;;2.63;1.08;;;9.90;91.10;;;;;;5093343;28;20392;-76
2020/12/24 01:15:48;;;;;;;3.78;1.20;;;9.90;91.20;;;;;;5093342;28;20058;-76
2020/12/24 01:18:14;;;;;;;4.10;1.60;;;9.90;91.10;;;;;;5091925;28;20028;-76
2020/12/24 01:20:39;;;;;;;4.13;1.40;;;9.90;91.10;;;;;;5091982;28;20196;-76
2020/12/24 01:23:05;;;;;;;4.72;1.67;;;9.90;91.10;;;;;;5093284;28;20032;-76
2020/12/24 01:25:32;;;;;;;2.92;1.00;;;9.90;91.00;;;;;;5093377;28;20111;-76
2020/12/24 01:27:59;;;;;;;3.00;1.02;;;9.90;91.00;;;;;;5093288;28;20077;-76
2020/12/24 01:30:25;;;;;;;6.10;1.52;;;9.90;91.00;;;;;;5091652;28;20031;-76
2020/12/24 01:32:50;;;;;;;5.35;1.20;;;9.90;90.90;;;;;;5091790;28;20123;-76
2020/12/24 01:35:16;;;;;;;3.05;1.20;;;9.80;91.00;;;;;;5091655;28;20032;-76
2020/12/24 01:37:42;;;;;;;4.80;1.45;;;9.80;90.70;;;;;;5091933;28;20028;-76
2020/12/24 01:40:07;;;;;;;3.72;0.90;;;9.80;90.70;;;;;;5091633;28;20032;-76
2020/12/24 01:42:33;;;;;;;3.47;1.20;;;9.80;90.60;;;;;;5091473;28;20118;-76
2020/12/24 01:44:59;;;;;;;3.17;1.15;;;9.70;90.60;;;;;;5091525;28;20035;-76
2020/12/24 01:47:24;;;;;;;5.28;1.23;;;9.70;90.50;;;;;;5092023;28;20064;-76
2020/12/24 01:49:50;;;;;;;4.50;1.20;;;9.70;90.50;;;;;;5091636;28;20028;-76
2020/12/24 01:52:31;;;;;;;3.75;1.30;;;9.70;90.40;;;;;;5091742;28;20531;-76
2020/12/24 01:54:59;;;;;;;3.58;1.05;;;9.60;90.30;;;;;;5091137;28;20052;-76
2020/12/24 01:57:24;;;;;;;3.28;1.30;;;9.60;90.30;;;;;;5092706;28;20032;-76
2020/12/24 01:59:52;;;;;;;4.28;1.20;;;9.60;90.30;;;;;;5091434;28;20104;-76
2020/12/24 02:02:18;;;;;;;4.28;0.98;;;9.60;90.40;;;;;;5091424;28;20020;-76
2020/12/24 02:04:44;;;;;;;5.65;1.67;;;9.60;90.40;;;;;;5092762;28;20497;-76
2020/12/24 02:07:09;;;;;;;2.67;1.02;;;9.50;90.30;;;;;;5091445;28;20024;-76
2020/12/24 02:09:35;;;;;;;3.30;1.00;;;9.50;90.30;;;;;;5093200;28;20028;-76
2020/12/24 02:12:02;;;;;;;6.03;1.05;;;9.50;90.30;;;;;;5091285;28;20032;-76
2020/12/24 02:14:28;;;;;;;4.00;1.17;;;9.50;90.40;;;;;;5091293;28;20032;-75
2020/12/24 02:16:54;;;;;;;5.45;1.10;;;9.60;90.40;;;;;;5092749;28;20044;-76
2020/12/24 02:19:19;;;;;;;3.85;1.20;;;9.60;90.30;;;;;;5091277;28;20034;-76
2020/12/24 02:21:45;;;;;;;4.30;1.10;;;9.60;90.30;;;;;;5093068;28;20130;-76
2020/12/24 02:24:11;;;;;;;2.90;1.20;;;9.60;90.30;;;;;;5093064;28;20099;-76
2020/12/24 02:26:36;;;;;;;4.60;1.10;;;9.60;90.30;;;;;;5091175;28;20074;-75
2020/12/24 02:29:02;;;;;;;3.70;1.10;;;9.60;90.30;;;;;;5110667;28;20158;-76
2020/12/24 02:31:28;;;;;;;6.05;1.30;;;9.50;90.20;;;;;;5093636;28;20503;-76
2020/12/24 02:33:53;;;;;;;3.60;1.63;;;9.60;90.20;;;;;;5110589;28;20036;-76
2020/12/24 02:36:19;;;;;;;4.10;1.38;;;9.60;90.20;;;;;;5093739;28;20042;-76
2020/12/24 02:38:45;;;;;;;2.45;0.90;;;9.60;90.30;;;;;;5093777;28;20020;-76
2020/12/24 02:41:11;;;;;;;4.25;1.00;;;9.60;90.30;;;;;;5111539;28;20032;-76
2020/12/24 02:43:37;;;;;;;3.97;1.27;;;9.60;90.30;;;;;;5114555;28;20032;-76
2020/12/24 02:46:02;;;;;;;6.20;1.30;;;9.60;90.20;;;;;;5111582;28;20039;-76
2020/12/24 02:48:28;;;;;;;5.63;1.52;;;9.60;90.20;;;;;;5114647;28;20032;-76
2020/12/24 02:50:53;;;;;;;4.57;1.10;;;9.60;90.10;;;;;;5114487;28;20435;-76
2020/12/24 02:53:19;;;;;;;6.78;1.67;;;9.50;90.10;;;;;;5114460;28;20151;-76
2020/12/24 02:55:45;;;;;;;5.03;1.30;;;9.60;90.00;;;;;;5096877;28;20135;-76
2020/12/24 02:58:11;;;;;;;4.80;1.40;;;9.60;90.00;;;;;;5114292;28;20028;-76
2020/12/24 03:00:38;;;;;;;6.68;1.48;;;9.50;89.90;;;;;;5114616;28;20036;-75
2020/12/24 03:03:04;;;;;;;4.88;1.50;;;9.50;90.00;;;;;;5114227;28;20028;-75
2020/12/24 03:05:29;;;;;;;7.25;1.25;;;9.50;90.00;;;;;;5112216;28;20536;-75
2020/12/24 03:07:55;;;;;;;2.88;1.25;;;9.50;89.90;;;;;;5094904;28;20036;-76
2020/12/24 03:10:21;;;;;;;4.93;1.55;;;9.50;89.90;;;;;;5094868;28;20050;-76
2020/12/24 03:12:46;;;;;;;2.45;1.10;;;9.50;89.90;;;;;;5094928;28;20063;-76
2020/12/24 03:15:12;;;;;;;6.20;1.42;;;9.50;89.80;;;;;;5095126;28;20454;-75
2020/12/24 03:17:38;;;;;;;7.65;1.40;;;9.50;89.70;;;;;;5094805;28;20115;-76
2020/12/24 03:20:07;;;;;;;7.65;1.42;;;9.50;89.80;;;;;;5095672;28;20063;-76
2020/12/24 03:22:34;;;;;;;4.10;1.38;;;9.50;89.70;;;;;;5094267;28;20024;-76
2020/12/24 03:24:59;;;;;;;6.82;1.40;;;9.60;89.80;;;;;;5094274;28;20139;-76
2020/12/24 03:27:25;;;;;;;5.80;1.75;;;9.60;89.80;;;;;;5095551;28;20103;-75
2020/12/24 03:29:50;;;;;;;4.07;1.30;;;9.60;89.70;;;;;;5095564;28;20032;-76
2020/12/24 03:32:16;;;;;;;4.72;1.40;;;9.60;89.70;;;;;;5094164;28;20030;-75
2020/12/24 03:34:42;;;;;;;7.13;1.50;;;9.60;89.70;;;;;;5094096;28;20495;-76
2020/12/24 03:37:07;;;;;;;6.25;1.73;;;9.60;89.70;;;;;;5095343;28;20040;-75
2020/12/24 03:39:33;;;;;;;7.75;1.30;;;9.60;89.70;;;;;;5094031;28;20104;-76
2020/12/24 03:41:59;;;;;;;5.38;1.48;;;9.50;89.60;;;;;;5093910;28;20020;-76
2020/12/24 03:44:24;;;;;;;3.50;1.30;;;9.50;90.10;;;;;;5093883;28;20024;-76
2020/12/24 03:46:50;;;;;;;4.65;1.42;;;9.50;89.70;;;;;;5095171;28;20081;-76
2020/12/24 03:49:16;;;;;;;4.93;1.33;;;9.50;89.50;;;;;;5093886;28;20055;-76
2020/12/24 03:51:41;;;;;;;5.78;1.88;;;9.50;89.60;;;;;;5093757;28;20076;-76
2020/12/24 03:54:07;;;;;;;6.75;1.40;;;9.50;89.70;;;;;;5094709;28;20032;-76
2020/12/24 03:56:33;;;;;;;5.18;1.50;;;9.50;89.60;;;;;;5095106;28;20032;-76
2020/12/24 03:58:58;;;;;;;7.50;1.98;;;9.60;89.70;;;;;;5093768;28;20077;-75
2020/12/24 04:01:25;;;;;;;7.85;1.60;;;9.50;89.70;;;;;;5093728;28;20383;-75
2020/12/24 04:03:51;;;;;;;6.63;1.77;;;9.50;89.60;;;;;;5095030;28;20047;-75
2020/12/24 04:06:16;;;;;;;8.60;2.13;;;9.50;89.60;;;;;;5093831;28;20401;-75
2020/12/24 04:08:42;;;;;;;7.32;1.77;;;9.50;89.50;;;;;;5093739;28;20031;-76
2020/12/24 04:11:08;;;;;;;8.65;1.77;;;9.50;89.50;;;;;;5095023;28;20032;-75
2020/12/24 04:13:33;;;;;;;4.78;1.25;;;9.50;89.70;;;;;;5095380;28;20071;-76
2020/12/24 04:15:59;;;;;;;6.53;1.70;;;9.50;89.60;;;;;;5094744;28;20036;-75
2020/12/24 04:18:25;;;;;;;7.28;1.75;;;9.50;89.50;;;;;;5094805;28;20099;-76
2020/12/24 04:20:51;;;;;;;10.23;1.80;;;9.50;89.60;;;;;;5093288;28;20035;-75
2020/12/24 04:23:16;;;;;;;3.22;1.38;;;9.50;89.50;;;;;;5093295;28;20383;-75
2020/12/24 04:25:42;;;;;;;6.88;1.40;;;9.50;89.70;;;;;;5093263;28;20073;-76
2020/12/24 04:28:07;;;;;;;6.20;1.63;;;9.50;89.70;;;;;;5094765;28;20024;-75
2020/12/24 04:30:33;;;;;;;6.20;1.67;;;9.50;89.70;;;;;;5093155;28;20130;-76
2020/12/24 04:32:59;;;;;;;6.68;1.42;;;9.50;89.70;;;;;;5093002;28;20644;-76
2020/12/24 04:35:24;;;;;;;9.55;1.70;;;9.50;89.70;;;;;;5092887;28;20119;-76
2020/12/24 04:37:50;;;;;;;8.18;1.88;;;9.50;89.70;;;;;;5092810;28;20031;-76
2020/12/24 04:40:16;;;;;;;5.03;1.30;;;9.60;89.70;;;;;;5092924;28;20027;-76
2020/12/24 04:42:43;;;;;;;8.93;1.85;;;9.50;89.70;;;;;;5094061;28;20031;-76
2020/12/24 04:45:10;;;;;;;5.97;1.77;;;9.50;89.60;;;;;;5094289;28;20039;-76
2020/12/24 04:47:41;;;;;;;7.35;1.60;;;9.50;89.70;;;;;;5092713;28;20032;-76
2020/12/24 04:50:08;;;;;;;5.30;1.58;;;9.50;89.70;;;;;;5092665;28;20511;-75
2020/12/24 04:52:35;;;;;;;3.85;1.25;;;9.50;89.50;;;;;;5092614;28;20024;-76
2020/12/24 04:55:04;;;;;;;1.25;0.70;;;9.30;88.70;;;;;;5093820;28;20127;-76
2020/12/24 04:57:31;;;;;;;1.30;0.60;;;9.00;88.50;;;;;;5092491;28;20049;-76
2020/12/24 04:59:58;;;;;;;0.35;0.35;;;8.70;88.30;;;;;;5092606;28;20119;-76
2020/12/24 05:02:24;;;;;;;0.30;0.20;;;8.30;88.80;;;;;;5092396;28;20055;-76
2020/12/24 05:04:54;;;;;;;0.60;0.40;;;8.00;89.20;;;;;;5093565;28;20071;-76
2020/12/24 05:07:20;;;;;;;0.45;0.20;;;7.70;89.50;;;;;;5092430;28;20177;-76
2020/12/24 05:09:49;;;;;;;1.40;0.50;;;7.40;88.70;;;;;;5092503;28;20525;-76
2020/12/24 05:12:32;;;;;;;0.50;0.20;;;7.10;88.70;;;;;;5093633;28;20073;-76
2020/12/24 05:14:58;;;;;;;0.20;0.20;;;6.80;89.40;;;;;;5092213;28;20494;-76
2020/12/24 05:17:25;;;;;;;0.30;0.30;;;6.60;90.00;;;;;;5092440;28;20389;-76
2020/12/24 05:20:05;;;;;;;0.50;0.20;;;6.40;90.10;;;;;;5092156;28;20020;-76
2020/12/24 05:22:31;;;;;;;0.70;0.40;;;6.20;90.20;;;;;;5093596;28;20016;-76
2020/12/24 05:25:19;;;;;;;0.20;0.20;;;6.00;90.40;;;;;;5093454;28;20032;-76
2020/12/24 05:28:34;;;;;;;0.32;0.32;;;5.90;90.50;;;;;;5093981;28;20028;-76
2020/12/24 05:30:59;;;;;;;0.95;0.20;;;5.80;90.50;;;;;;5079000;28;20060;-76
2020/12/24 05:33:26;;;;;;;0.60;0.30;;;5.60;90.60;;;;;;5089086;28;20036;-76
2020/12/24 05:35:52;;;;;;;0.30;0.20;;;5.50;90.70;;;;;;5093308;28;20458;-76
2020/12/24 05:38:38;;;;;;;0.25;0.20;;;5.50;90.80;;;;;;5092124;28;20082;-76
2020/12/24 05:41:26;;;;;;;0.10;0.10;;;5.40;90.90;;;;;;5091670;28;20043;-76
2020/12/24 05:44:07;;;;;;;0.20;0.20;;;5.40;90.90;;;;;;5091843;28;20020;-76
2020/12/24 05:46:47;;;;;;;0.20;0.20;;;5.30;91.00;;;;;;5091878;28;20067;-76
2020/12/24 05:49:21;;;;;;;0.30;0.20;;;5.30;91.00;;;;;;5091777;28;20029;-76
2020/12/24 05:52:07;;;;;;;1.77;0.30;;;5.20;91.00;;;;;;5091859;28;20059;-76
2020/12/24 05:54:35;;;;;;;0.47;0.30;;;5.20;91.00;;;;;;5092586;28;20097;-76
2020/12/24 05:57:02;;;;;;;0.30;0.22;;;5.20;91.10;;;;;;5091705;28;20024;-76
2020/12/24 05:59:29;;;;;;;0.10;0.10;;;5.20;91.10;;;;;;5091672;28;20017;-77
2020/12/24 06:02:14;;;;;;;0.30;0.20;;;5.20;91.30;;;;;;5091754;28;20479;-76
2020/12/24 06:04:48;;;;;;;0.28;0.20;;;5.20;91.00;;;;;;5092856;28;20035;-76
2020/12/24 06:07:19;;;;;;;1.60;0.22;;;5.10;91.00;;;;;;5091654;28;20028;-76
2020/12/24 06:09:46;;;;;;;0.80;0.30;;;5.10;91.00;;;;;;5091774;28;20064;-76
2020/12/24 06:12:22;;;;;;;2.40;0.40;;;5.10;91.20;;;;;;5091626;28;20031;-76
2020/12/24 06:15:03;;;;;;;0.85;0.20;;;5.10;91.10;;;;;;5091543;28;20043;-77
2020/12/24 06:17:30;;;;;;;0.88;0.40;;;5.10;91.10;;;;;;5094578;28;20024;-76
2020/12/24 06:19:56;;;;;;;0.47;0.20;;;5.20;91.20;;;;;;5095570;28;20028;-76
2020/12/24 06:22:26;;;;;;;0.30;0.30;;;5.20;91.10;;;;;;5095557;28;20039;-76
2020/12/24 06:24:57;;;;;;;0.77;0.20;;;5.20;91.10;;;;;;5095448;28;20027;-76
2020/12/24 06:27:37;;;;;;;0.50;0.50;;;5.20;91.00;;;;;;5096864;28;20024;-76
2020/12/24 06:30:25;;;;;;;0.68;0.30;;;5.10;91.10;;;;;;5095476;28;20369;-76
2020/12/24 06:32:55;;;;;;;0.80;0.40;;;5.10;91.10;;;;;;5095516;28;20020;-76
2020/12/24 06:35:40;;;;;;;0.30;0.30;;;5.10;91.10;;;;;;5096485;28;20035;-77
2020/12/24 06:38:08;;;;;;;0.55;0.45;;;5.10;91.10;;;;;;5095291;28;20355;-77
2020/12/24 06:40:36;;;;;;;0.50;0.50;;;5.10;91.20;;;;;;5095258;28;20020;-76
2020/12/24 06:43:03;;;;;;;1.40;0.40;;;5.10;91.10;;;;;;5095128;28;20017;-76
2020/12/24 06:45:29;;;;;;;0.50;0.50;;;5.10;91.10;;;;;;5095093;28;20043;-76
2020/12/24 06:48:22;;;;;;;0.28;0.28;;;5.10;91.20;;;;;;5095014;28;20039;-76
2020/12/24 06:50:52;;;;;;;1.25;0.50;;;5.20;91.20;;;;;;5095104;28;20168;-76
2020/12/24 06:53:25;;;;;;;1.13;0.50;;;5.10;91.20;;;;;;5095039;28;20032;-76
2020/12/24 06:56:09;;;;;;;0.52;0.40;;;5.20;91.20;;;;;;5094756;28;20054;-76
2020/12/24 06:59:04;;;;;;;0.40;0.40;;;5.20;91.20;;;;;;5095065;28;20094;-76
2020/12/24 07:01:31;;;;;;;1.52;0.70;;;5.20;91.50;;;;;;5087324;28;20070;-76
2020/12/24 07:04:02;;;;;;;0.50;0.40;;;5.20;91.20;;;;;;5094641;28;20375;-76
2020/12/24 07:06:54;;;;;;;0.57;0.57;;;5.20;91.20;;;;;;5094719;28;20052;-76
2020/12/24 07:09:20;;;;;;;0.93;0.45;;;5.30;91.20;;;;;;5091881;28;20047;-76
2020/12/24 07:11:50;;;;;;;0.90;0.50;;;5.30;91.20;;;;;;5094960;28;20368;-77
2020/12/24 07:14:42;;;;;;;0.60;0.60;;;5.30;91.20;;;;;;5096257;28;20024;-76
2020/12/24 07:17:13;;;;;;;0.68;0.57;;;5.40;91.20;;;;;;5091600;28;20139;-76
2020/12/24 07:19:42;;;;;;;1.35;0.70;;;5.40;91.20;;;;;;5094561;28;20024;-76
2020/12/24 07:22:13;;;;;;;0.77;0.60;;;5.50;91.20;;;;;;5094494;28;20506;-76
2020/12/24 07:24:38;;;;;;;0.73;0.60;;;5.50;91.20;;;;;;5094429;28;20470;-76
2020/12/24 07:27:05;;;;;;;0.90;0.60;;;5.60;91.10;;;;;;5093940;28;20016;-76
2020/12/24 07:29:33;;;;;;;0.52;0.40;;;5.60;91.10;;;;;;5095492;28;20020;-76
2020/12/24 07:32:06;;;;;;;0.40;0.40;;;5.60;91.10;;;;;;5094209;28;20016;-76
2020/12/24 07:34:34;;;;;;;1.08;0.60;;;5.60;91.10;;;;;;5094132;28;20031;-76
2020/12/24 07:37:03;;;;;;;0.93;0.50;;;5.60;91.10;;;;;;5094215;28;20043;-76
2020/12/24 07:39:29;;;;;;;0.55;0.55;;;5.60;91.10;;;;;;5094173;28;20020;-76
2020/12/24 07:41:55;;;;;;;0.73;0.50;;;5.60;91.00;;;;;;5094170;28;20030;-76
2020/12/24 07:44:21;;;;;;;0.30;0.30;;;5.70;91.00;;;;;;5095350;28;20489;-76
2020/12/24 07:46:48;;;;;;;1.00;0.50;;;5.60;91.00;;;;;;5095427;28;20487;-76
2020/12/24 07:49:14;;;;;;;1.30;0.68;;;5.60;91.20;;;;;;5095629;28;20016;-76
2020/12/24 07:51:41;;;;;;;0.63;0.60;;;5.60;91.00;;;;;;5095114;28;20047;-76
2020/12/24 07:54:18;;;;;;;0.77;0.70;;;5.60;91.00;;;;;;5093511;28;20471;-76
2020/12/24 07:56:45;;;;;;;0.75;0.70;;;5.60;91.00;;;;;;5094783;28;20023;-76
2020/12/24 07:59:12;;;;;;;0.75;0.73;;;5.60;91.00;;;;;;5093537;28;20398;-76
2020/12/24 08:01:38;;;;;;;1.13;0.98;;;5.60;91.00;;;;;;5093591;28;20020;-75
2020/12/24 08:04:05;;;;;;;1.10;0.90;;;5.60;91.00;;;;;;5093318;28;20105;-75
2020/12/24 08:06:35;;;;;;;2.00;1.10;;;5.60;91.10;;;;;;5094665;28;20020;-75
2020/12/24 08:09:20;;;;;;;1.10;1.00;;;5.70;91.00;;;;;;5093223;28;20016;-75
2020/12/24 08:11:57;;;;;;;1.27;1.10;;;5.60;90.90;;;;;;5093040;28;20433;-75
2020/12/24 08:14:28;;;;;;;1.65;1.13;;;5.60;91.00;;;;;;5094493;28;20024;-76
2020/12/24 08:17:12;;;;;;;1.77;1.10;;;5.70;90.90;;;;;;5093168;28;20024;-75
2020/12/24 08:19:53;;;;;;;1.20;0.90;;;5.60;90.90;;;;;;5094427;28;20080;-75
2020/12/24 08:22:35;;;;;;;1.52;1.02;;;5.60;90.90;;;;;;5093202;28;20024;-75
2020/12/24 08:25:01;;;;;;;2.25;1.33;;;5.50;90.90;;;;;;5093151;28;20050;-75
2020/12/24 08:27:27;;;;;;;1.10;1.00;;;5.60;91.00;;;;;;5094315;28;20020;-76
2020/12/24 08:29:58;;;;;;;21.17;1.77;;;5.60;91.00;;;;;;5092921;28;20085;-76
2020/12/24 08:32:23;;;;;;;11.60;2.30;;;5.60;91.00;;;;;;5092870;28;20568;-76
2020/12/24 08:34:49;;;;;;;1.23;1.13;;;5.70;91.00;;;;;;5094249;28;20066;-76
2020/12/24 08:37:25;;;;;;;2.30;1.25;;;5.60;90.90;;;;;;5092906;28;20372;-76
2020/12/24 08:39:51;;;;;;;1.42;0.95;;;5.60;90.90;;;;;;5093782;28;20020;-76
2020/12/24 08:42:18;;;;;;;1.05;1.02;;;5.60;90.90;;;;;;5092635;28;20027;-75
2020/12/24 08:44:43;;;;;;;1.00;0.77;;;5.60;91.00;;;;;;5093958;28;20111;-75
2020/12/24 08:47:10;;;;;;;2.10;1.10;;;5.60;91.00;;;;;;5092643;28;20180;-75
2020/12/24 08:49:43;;;;;;;1.00;0.88;;;5.70;91.10;;;;;;5092539;28;20034;-76
2020/12/24 08:52:14;;;;;;;1.55;1.30;;;5.70;91.00;;;;;;5093851;28;20095;-75
2020/12/24 08:54:59;;;;;;;1.80;1.20;;;5.70;91.00;;;;;;5093800;28;20127;-75
2020/12/24 08:57:25;;;;;;;1.67;1.02;;;5.70;91.00;;;;;;5092526;28;20020;-74
2020/12/24 08:59:59;;;;;;;17.75;1.98;;;5.70;91.00;;;;;;5093850;28;20020;-75
2020/12/24 09:02:33;;;;;;;1.48;1.38;;;5.70;91.00;;;;;;5093989;28;20016;-75
2020/12/24 09:05:01;;;;;;;3.90;1.83;;;5.70;90.90;;;;;;5092511;28;20077;-75
2020/12/24 09:07:28;;;;;;;1.63;1.27;;;5.80;90.90;;;;;;5093678;28;20028;-75
2020/12/24 09:10:03;;;;;;;1.55;1.45;;;5.80;91.00;;;;;;5093707;28;20133;-75
2020/12/24 09:12:29;;;;;;;11.75;1.30;;;5.80;91.00;;;;;;5092245;28;20062;-75
2020/12/24 09:15:09;;;;;;;2.65;1.60;;;5.80;91.00;;;;;;5092246;28;20047;-74
2020/12/24 09:17:35;;;;;;;1.50;1.40;;;5.80;91.00;;;;;;5093342;28;20097;-76
2020/12/24 09:20:02;;;;;;;9.90;1.58;;;5.90;91.00;;;;;;5091967;28;20016;-76
2020/12/24 09:22:27;;;;;;;1.25;1.15;;;5.90;91.00;;;;;;5091945;28;20034;-76
2020/12/24 09:24:53;;;;;;;1.08;1.05;;;5.90;90.90;;;;;;5091934;28;20109;-76
2020/12/24 09:27:19;;;;;;;1.80;1.30;;;5.90;91.20;;;;;;5093411;28;20575;-76
2020/12/24 09:29:45;;;;;;;1.70;1.30;;;5.90;90.90;;;;;;5093430;28;20024;-75
2020/12/24 09:32:12;;;;;;;1.58;1.13;;;5.90;91.00;;;;;;5093258;28;20384;-76
2020/12/24 09:34:38;;;;;;;2.35;1.30;;;6.00;91.00;;;;;;5092119;28;20103;-76
2020/12/24 09:37:04;;;;;;;1.35;1.13;;;6.00;90.90;;;;;;5093293;28;20031;-76
2020/12/24 09:39:30;;;;;;;2.75;1.13;;;5.90;90.90;;;;;;5091858;28;20023;-75
2020/12/24 09:41:56;;;;;;;1.00;1.00;;;6.00;90.90;;;;;;5093245;28;20340;-76
2020/12/24 09:44:21;;;;;;;1.00;0.90;;;6.00;90.90;;;;;;5091545;28;20413;-76
2020/12/24 09:46:48;;;;;;;1.38;1.10;;;6.00;91.10;;;;;;5091749;28;20053;-76
2020/12/24 09:49:14;;;;;;;1.70;1.60;;;6.00;90.80;;;;;;5091518;28;20081;-77
2020/12/24 09:51:40;;;;;;;1.10;1.00;;;6.00;90.80;;;;;;5091254;28;20407;-77
2020/12/24 09:54:07;;;;;;;2.15;1.20;;;6.00;90.80;;;;;;5091422;28;20043;-77
2020/12/24 09:56:33;;;;;;;1.70;1.35;;;6.00;90.90;;;;;;5092747;28;20031;-77
2020/12/24 09:58:59;;;;;;;1.67;1.35;;;6.10;90.90;;;;;;5091430;28;20031;-75
2020/12/24 10:01:25;;;;;;;1.33;1.00;;;6.10;91.00;;;;;;5092545;28;20314;-76
2020/12/24 10:03:51;;;;;;;2.05;1.10;;;6.10;90.90;;;;;;5091682;28;20024;-75
2020/12/24 10:06:16;;;;;;;1.50;1.15;;;6.10;90.90;;;;;;5091803;28;20020;-76
2020/12/24 10:08:42;;;;;;;1.38;1.17;;;6.10;90.90;;;;;;5091912;28;20028;-77
2020/12/24 10:11:15;;;;;;;2.22;1.40;;;6.20;90.80;;;;;;5091886;28;20024;-75
2020/12/24 10:13:41;;;;;;;1.38;1.27;;;6.20;90.80;;;;;;5091548;28;20023;-76
2020/12/24 10:16:07;;;;;;;2.10;1.50;;;6.10;90.80;;;;;;5092720;28;20028;-75
2020/12/24 10:18:33;;;;;;;2.92;1.70;;;6.20;90.90;;;;;;5091439;28;20051;-76
2020/12/24 10:20:59;;;;;;;1.42;1.30;;;6.20;90.90;;;;;;5091332;28;20081;-75
2020/12/24 10:23:25;;;;;;;2.00;1.33;;;6.20;90.90;;;;;;5091204;28;20460;-76
2020/12/24 10:25:51;;;;;;;1.83;1.50;;;6.30;90.90;;;;;;5091345;28;20074;-75
2020/12/24 10:28:16;;;;;;;2.67;1.35;;;6.30;90.90;;;;;;5091410;28;20077;-75
2020/12/24 10:30:43;;;;;;;1.50;1.40;;;6.30;90.90;;;;;;5091361;28;20067;-75
2020/12/24 10:33:09;;;;;;;2.10;1.30;;;6.30;90.90;;;;;;5091140;28;20031;-75
2020/12/24 10:35:36;;;;;;;1.83;1.30;;;6.30;90.90;;;;;;5091077;28;20043;-75
2020/12/24 10:38:03;;;;;;;1.60;1.40;;;6.40;90.90;;;;;;5091140;28;20118;-75
2020/12/24 10:40:30;;;;;;;1.85;1.10;;;6.40;90.90;;;;;;5091339;28;20106;-75
2020/12/24 10:42:56;;;;;;;2.03;1.35;;;6.40;90.80;;;;;;5091172;28;20017;-75
2020/12/24 10:45:22;;;;;;;3.72;1.45;;;6.40;90.80;;;;;;5092445;28;20040;-76
2020/12/24 10:47:48;;;;;;;2.60;1.30;;;6.40;90.80;;;;;;5091073;28;20321;-76
2020/12/24 10:50:15;;;;;;;2.55;1.27;;;6.50;90.80;;;;;;5091416;28;20020;-76
2020/12/24 10:52:40;;;;;;;3.85;1.73;;;6.50;90.80;;;;;;5091810;28;20367;-76
2020/12/24 10:55:06;;;;;;;2.45;1.20;;;6.50;90.80;;;;;;5090823;28;20044;-75
2020/12/24 10:57:32;;;;;;;2.45;1.30;;;6.60;90.90;;;;;;5091290;28;20433;-75
2020/12/24 10:59:57;;;;;;;2.53;1.20;;;6.60;90.80;;;;;;5091171;28;20357;-75
2020/12/24 11:02:23;;;;;;;1.83;1.20;;;6.70;90.80;;;;;;5093798;28;20153;-75
2020/12/24 11:04:49;;;;;;;2.75;0.90;;;6.70;90.80;;;;;;5095195;28;20543;-75
2020/12/24 11:07:15;;;;;;;4.30;1.23;;;6.80;90.80;;;;;;5095494;28;20059;-75
2020/12/24 11:09:40;;;;;;;2.55;1.20;;;6.80;90.80;;;;;;5094802;28;20031;-75
2020/12/24 11:12:06;;;;;;;5.03;1.40;;;6.90;90.80;;;;;;5094753;28;20024;-75
2020/12/24 11:14:33;;;;;;;5.70;1.60;;;6.90;90.70;;;;;;5094532;28;20097;-77
2020/12/24 11:16:59;;;;;;;6.35;1.35;;;6.90;90.70;;;;;;5094432;28;20016;-75
2020/12/24 11:19:25;;;;;;;2.55;1.20;;;6.90;91.00;;;;;;5095807;28;20081;-76
2020/12/24 11:21:52;;;;;;;3.08;1.00;;;7.00;90.80;;;;;;5094305;28;20375;-75
2020/12/24 11:24:17;;;;;;;2.15;0.93;;;7.00;90.70;;;;;;5094390;28;20027;-75
2020/12/24 11:26:43;;;;;;;3.72;1.02;;;7.00;90.70;;;;;;5095675;28;20024;-76
2020/12/24 11:29:09;;;;;;;4.28;1.25;;;7.10;90.70;;;;;;5096040;28;20020;-76
2020/12/24 11:31:36;;;;;;;3.63;1.15;;;7.10;90.70;;;;;;5095912;28;20016;-76
2020/12/24 11:34:03;;;;;;;2.45;1.00;;;7.10;90.60;;;;;;5093910;28;20173;-75
2020/12/24 11:36:30;;;;;;;2.42;1.13;;;7.10;90.60;;;;;;5093932;28;20111;-76
2020/12/24 11:38:56;;;;;;;4.72;1.02;;;7.20;90.70;;;;;;5095289;28;20073;-76
2020/12/24 11:41:24;;;;;;;4.35;1.30;;;7.20;90.70;;;;;;5094015;28;20012;-76
2020/12/24 11:43:51;;;;;;;3.50;1.23;;;7.20;90.60;;;;;;5095203;28;20027;-76
2020/12/24 11:46:18;;;;;;;4.35;1.08;;;7.20;90.60;;;;;;5095204;28;20024;-76
2020/12/24 11:48:45;;;;;;;3.47;1.00;;;7.20;90.60;;;;;;5093835;28;20436;-76
2020/12/24 11:51:13;;;;;;;3.10;1.25;;;7.20;90.60;;;;;;5093731;28;20020;-75
2020/12/24 11:53:40;;;;;;;2.95;0.90;;;7.20;90.50;;;;;;5093799;28;20032;-75
2020/12/24 11:56:16;;;;;;;3.97;0.93;;;7.30;90.60;;;;;;5094685;28;20046;-75
2020/12/24 11:58:43;;;;;;;3.83;1.10;;;7.30;90.60;;;;;;5094877;28;20494;-75
2020/12/24 12:01:11;;;;;;;5.10;1.30;;;7.30;90.50;;;;;;5095569;28;20020;-76
2020/12/24 12:03:37;;;;;;;3.13;1.10;;;7.30;90.50;;;;;;5093714;28;20349;-75
2020/12/24 12:06:05;;;;;;;5.97;1.25;;;7.40;90.50;;;;;;5094845;28;20035;-76
2020/12/24 12:08:31;;;;;;;4.03;1.33;;;7.40;90.50;;;;;;5093326;28;20069;-75
2020/12/24 12:11:00;;;;;;;5.45;1.27;;;7.50;90.50;;;;;;5094955;28;20070;-75
2020/12/24 12:13:25;;;;;;;6.88;1.58;;;7.50;90.40;;;;;;5093567;28;20016;-76
2020/12/24 12:15:51;;;;;;;4.35;1.10;;;7.50;90.30;;;;;;5093110;28;20150;-76
2020/12/24 12:18:17;;;;;;;3.72;1.58;;;7.50;90.30;;;;;;5093190;28;20387;-75
2020/12/24 12:20:42;;;;;;;5.53;1.40;;;7.50;90.30;;;;;;5094382;28;20024;-76
2020/12/24 12:23:08;;;;;;;5.88;1.30;;;7.50;90.30;;;;;;5094587;28;20082;-75
2020/12/24 12:25:33;;;;;;;4.88;1.20;;;7.50;90.30;;;;;;5094372;28;20114;-76
2020/12/24 12:27:59;;;;;;;5.05;1.52;;;7.50;90.30;;;;;;5093236;28;20028;-75
2020/12/24 12:30:25;;;;;;;3.60;1.30;;;7.50;90.30;;;;;;5093610;28;20016;-76
2020/12/24 12:32:50;;;;;;;3.47;1.20;;;7.50;90.30;;;;;;5093011;28;20360;-75
2020/12/24 12:35:18;;;;;;;7.50;1.40;;;7.50;90.30;;;;;;5094294;28;20111;-75
2020/12/24 12:37:43;;;;;;;5.97;1.23;;;7.60;90.60;;;;;;5093019;28;20020;-76
2020/12/24 12:40:09;;;;;;;4.63;1.10;;;7.60;90.30;;;;;;5094147;28;20428;-76
2020/12/24 12:42:35;;;;;;;4.90;1.17;;;7.50;90.30;;;;;;5092735;28;20528;-75
2020/12/24 12:45:01;;;;;;;4.80;1.20;;;7.50;90.30;;;;;;5093913;28;20024;-75
2020/12/24 12:47:26;;;;;;;4.28;1.23;;;7.50;90.20;;;;;;5092521;28;20036;-75
2020/12/24 12:49:53;;;;;;;4.95;1.20;;;7.50;90.20;;;;;;5094376;28;20048;-75
2020/12/24 12:52:19;;;;;;;4.18;1.00;;;7.50;90.20;;;;;;5092614;28;20020;-75
2020/12/24 12:54:45;;;;;;;5.47;1.25;;;7.50;90.20;;;;;;5092232;28;20380;-75
2020/12/24 12:57:11;;;;;;;3.35;0.90;;;7.50;90.20;;;;;;5092614;28;20024;-76
2020/12/24 12:59:37;;;;;;;6.93;1.30;;;7.40;90.10;;;;;;5094239;28;20025;-75
2020/12/24 13:02:02;;;;;;;6.60;1.40;;;7.40;90.10;;;;;;5092444;28;20026;-75